sensor_id;sensor_type;location;lat;lon;timestamp;pressure;altitude;pressure_sealevel;temperature;humidity
64230;BME280;50547;49.498;0.092;2023-02-04T00:00:11;1034.68;;;10.27;89.74
64230;BME280;50547;49.498;0.092;2023-02-04T00:02:41;1034.66;;;10.22;90.10
64230;BME280;50547;49.498;0.092;2023-02-04T00:05:11;1034.66;;;10.23;90.02
64230;BME280;50547;49.498;0.092;2023-02-04T00:07:40;1034.74;;;10.21;90.10
64230;BME280;50547;49.498;0.092;2023-02-04T00:10:09;1034.68;;;10.15;90.46
64230;BME280;50547;49.498;0.092;2023-02-04T00:12:38;1034.70;;;10.23;90.10
64230;BME280;50547;49.498;0.092;2023-02-04T00:15:07;1034.74;;;10.24;90.06
64230;BME280;50547;49.498;0.092;2023-02-04T00:17:37;1034.76;;;10.29;89.83
64230;BME280;50547;49.498;0.092;2023-02-04T00:20:06;1034.72;;;10.22;90.28
64230;BME280;50547;49.498;0.092;2023-02-04T00:22:35;1034.72;;;10.30;89.86
64230;BME280;50547;49.498;0.092;2023-02-04T00:25:10;1034.62;;;10.20;90.40
64230;BME280;50547;49.498;0.092;2023-02-04T00:27:40;1034.62;;;10.22;90.34
64230;BME280;50547;49.498;0.092;2023-02-04T00:30:10;1034.57;;;10.20;90.43
64230;BME280;50547;49.498;0.092;2023-02-04T00:32:39;1034.62;;;10.19;90.51
64230;BME280;50547;49.498;0.092;2023-02-04T00:35:08;1034.62;;;10.28;90.05
64230;BME280;50547;49.498;0.092;2023-02-04T00:37:37;1034.62;;;10.30;89.97
64230;BME280;50547;49.498;0.092;2023-02-04T00:40:08;1034.60;;;10.26;90.19
64230;BME280;50547;49.498;0.092;2023-02-04T00:42:37;1034.58;;;10.21;90.46
64230;BME280;50547;49.498;0.092;2023-02-04T00:45:08;1034.53;;;10.19;90.59
64230;BME280;50547;49.498;0.092;2023-02-04T00:47:37;1034.53;;;10.21;90.49
64230;BME280;50547;49.498;0.092;2023-02-04T00:50:11;1034.60;;;10.22;90.41
64230;BME280;50547;49.498;0.092;2023-02-04T00:52:40;1034.60;;;10.22;90.42
64230;BME280;50547;49.498;0.092;2023-02-04T00:55:09;1034.58;;;10.20;90.53
64230;BME280;50547;49.498;0.092;2023-02-04T00:57:38;1034.57;;;10.20;90.46
64230;BME280;50547;49.498;0.092;2023-02-04T01:00:09;1034.53;;;10.24;90.30
64230;BME280;50547;49.498;0.092;2023-02-04T01:02:38;1034.58;;;10.23;90.40
64230;BME280;50547;49.498;0.092;2023-02-04T01:05:08;1034.66;;;10.24;90.40
64230;BME280;50547;49.498;0.092;2023-02-04T01:07:37;1034.68;;;10.24;90.40
64230;BME280;50547;49.498;0.092;2023-02-04T01:10:11;1034.60;;;10.18;90.84
64230;BME280;50547;49.498;0.092;2023-02-04T01:12:40;1034.64;;;10.19;90.67
64230;BME280;50547;49.498;0.092;2023-02-04T01:15:09;1034.53;;;10.13;91.07
64230;BME280;50547;49.498;0.092;2023-02-04T01:17:38;1034.57;;;10.12;91.13
64230;BME280;50547;49.498;0.092;2023-02-04T01:20:08;1034.62;;;10.18;90.90
64230;BME280;50547;49.498;0.092;2023-02-04T01:22:38;1034.60;;;10.16;90.98
64230;BME280;50547;49.498;0.092;2023-02-04T01:25:07;1034.64;;;10.25;90.43
64230;BME280;50547;49.498;0.092;2023-02-04T01:27:36;1034.60;;;10.18;90.82
64230;BME280;50547;49.498;0.092;2023-02-04T01:30:07;1034.57;;;10.11;91.17
64230;BME280;50547;49.498;0.092;2023-02-04T01:32:36;1034.62;;;10.14;91.08
64230;BME280;50547;49.498;0.092;2023-02-04T01:35:05;1034.58;;;10.14;91.05
64230;BME280;50547;49.498;0.092;2023-02-04T01:37:35;1034.62;;;10.12;91.18
64230;BME280;50547;49.498;0.092;2023-02-04T01:40:05;1034.64;;;10.20;90.83
64230;BME280;50547;49.498;0.092;2023-02-04T01:42:34;1034.62;;;10.18;90.96
64230;BME280;50547;49.498;0.092;2023-02-04T01:45:04;1034.68;;;10.15;91.14
64230;BME280;50547;49.498;0.092;2023-02-04T01:47:34;1034.70;;;10.18;91.02
64230;BME280;50547;49.498;0.092;2023-02-04T01:50:04;1034.74;;;10.19;91.04
64230;BME280;50547;49.498;0.092;2023-02-04T01:52:35;1034.68;;;10.17;91.15
64230;BME280;50547;49.498;0.092;2023-02-04T01:57:39;1034.66;;;10.23;90.89
64230;BME280;50547;49.498;0.092;2023-02-04T02:00:14;1034.66;;;10.27;90.68
64230;BME280;50547;49.498;0.092;2023-02-04T02:02:45;1034.62;;;10.28;90.64
64230;BME280;50547;49.498;0.092;2023-02-04T02:05:17;1034.66;;;10.26;90.77
64230;BME280;50547;49.498;0.092;2023-02-04T02:07:47;1034.68;;;10.14;91.29
64230;BME280;50547;49.498;0.092;2023-02-04T02:10:17;1034.68;;;10.30;90.50
64230;BME280;50547;49.498;0.092;2023-02-04T02:12:47;1034.66;;;10.22;90.89
64230;BME280;50547;49.498;0.092;2023-02-04T02:15:18;1034.60;;;10.18;91.10
64230;BME280;50547;49.498;0.092;2023-02-04T02:17:47;1034.68;;;10.32;90.50
64230;BME280;50547;49.498;0.092;2023-02-04T02:20:20;1034.60;;;10.30;90.55
64230;BME280;50547;49.498;0.092;2023-02-04T02:22:59;1034.64;;;10.28;90.64
64230;BME280;50547;49.498;0.092;2023-02-04T02:25:27;1034.62;;;10.24;90.77
64230;BME280;50547;49.498;0.092;2023-02-04T02:27:57;1034.62;;;10.28;90.67
64230;BME280;50547;49.498;0.092;2023-02-04T02:30:25;1034.60;;;10.20;90.97
64230;BME280;50547;49.498;0.092;2023-02-04T02:32:55;1034.66;;;10.28;90.53
64230;BME280;50547;49.498;0.092;2023-02-04T02:35:25;1034.58;;;10.22;90.72
64230;BME280;50547;49.498;0.092;2023-02-04T02:37:54;1034.62;;;10.29;90.50
64230;BME280;50547;49.498;0.092;2023-02-04T02:40:24;1034.55;;;10.29;90.52
64230;BME280;50547;49.498;0.092;2023-02-04T02:42:53;1034.55;;;10.37;90.16
64230;BME280;50547;49.498;0.092;2023-02-04T02:45:25;1034.53;;;10.44;89.87
64230;BME280;50547;49.498;0.092;2023-02-04T02:47:56;1034.57;;;10.45;89.92
64230;BME280;50547;49.498;0.092;2023-02-04T02:50:28;1034.58;;;10.44;89.94
64230;BME280;50547;49.498;0.092;2023-02-04T02:52:58;1034.55;;;10.39;90.21
64230;BME280;50547;49.498;0.092;2023-02-04T02:55:27;1034.58;;;10.36;90.27
64230;BME280;50547;49.498;0.092;2023-02-04T02:57:55;1034.58;;;10.26;90.71
64230;BME280;50547;49.498;0.092;2023-02-04T03:00:32;1034.55;;;10.23;90.89
64230;BME280;50547;49.498;0.092;2023-02-04T03:03:00;1034.58;;;10.23;90.96
64230;BME280;50547;49.498;0.092;2023-02-04T03:05:36;1034.58;;;10.20;91.02
64230;BME280;50547;49.498;0.092;2023-02-04T03:08:06;1034.58;;;10.30;90.61
64230;BME280;50547;49.498;0.092;2023-02-04T03:10:45;1034.60;;;10.30;90.60
64230;BME280;50547;49.498;0.092;2023-02-04T03:13:15;1034.64;;;10.27;90.84
64230;BME280;50547;49.498;0.092;2023-02-04T03:15:47;1034.66;;;10.37;90.39
64230;BME280;50547;49.498;0.092;2023-02-04T03:18:18;1034.60;;;10.44;90.14
64230;BME280;50547;49.498;0.092;2023-02-04T03:20:50;1034.62;;;10.44;90.08
64230;BME280;50547;49.498;0.092;2023-02-04T03:23:19;1034.64;;;10.39;90.46
64230;BME280;50547;49.498;0.092;2023-02-04T03:25:48;1034.66;;;10.41;90.35
64230;BME280;50547;49.498;0.092;2023-02-04T03:28:18;1034.64;;;10.48;90.04
64230;BME280;50547;49.498;0.092;2023-02-04T03:30:47;1034.68;;;10.50;90.00
64230;BME280;50547;49.498;0.092;2023-02-04T03:33:20;1034.64;;;10.49;90.05
64230;BME280;50547;49.498;0.092;2023-02-04T03:35:49;1034.60;;;10.42;90.34
64230;BME280;50547;49.498;0.092;2023-02-04T03:38:19;1034.64;;;10.45;90.27
64230;BME280;50547;49.498;0.092;2023-02-04T03:40:48;1034.64;;;10.47;90.11
64230;BME280;50547;49.498;0.092;2023-02-04T03:43:22;1034.60;;;10.46;90.07
64230;BME280;50547;49.498;0.092;2023-02-04T03:45:51;1034.66;;;10.48;90.04
64230;BME280;50547;49.498;0.092;2023-02-04T03:48:20;1034.62;;;10.49;89.91
64230;BME280;50547;49.498;0.092;2023-02-04T03:50:49;1034.60;;;10.47;90.00
64230;BME280;50547;49.498;0.092;2023-02-04T03:53:16;1034.60;;;10.47;89.98
64230;BME280;50547;49.498;0.092;2023-02-04T03:55:45;1034.64;;;10.42;90.07
64230;BME280;50547;49.498;0.092;2023-02-04T03:58:14;1034.60;;;10.41;89.97
64230;BME280;50547;49.498;0.092;2023-02-04T04:00:41;1034.60;;;10.47;89.73
64230;BME280;50547;49.498;0.092;2023-02-04T04:03:08;1034.64;;;10.46;89.72
64230;BME280;50547;49.498;0.092;2023-02-04T04:05:38;1034.64;;;10.46;89.68
64230;BME280;50547;49.498;0.092;2023-02-04T04:08:07;1034.62;;;10.36;89.92
64230;BME280;50547;49.498;0.092;2023-02-04T04:10:36;1034.66;;;10.38;89.97
64230;BME280;50547;49.498;0.092;2023-02-04T04:13:05;1034.68;;;10.44;89.58
64230;BME280;50547;49.498;0.092;2023-02-04T04:15:34;1034.70;;;10.36;89.89
64230;BME280;50547;49.498;0.092;2023-02-04T04:18:03;1034.66;;;10.36;89.84
64230;BME280;50547;49.498;0.092;2023-02-04T04:20:32;1034.72;;;10.44;89.38
64230;BME280;50547;49.498;0.092;2023-02-04T04:22:58;1034.72;;;10.44;89.35
64230;BME280;50547;49.498;0.092;2023-02-04T04:25:27;1034.72;;;10.46;89.36
64230;BME280;50547;49.498;0.092;2023-02-04T04:27:56;1034.64;;;10.34;89.77
64230;BME280;50547;49.498;0.092;2023-02-04T04:30:25;1034.62;;;10.27;90.07
64230;BME280;50547;49.498;0.092;2023-02-04T04:32:54;1034.78;;;10.22;90.25
64230;BME280;50547;49.498;0.092;2023-02-04T04:35:23;1034.72;;;10.24;89.97
64230;BME280;50547;49.498;0.092;2023-02-04T04:37:52;1034.80;;;10.22;89.93
64230;BME280;50547;49.498;0.092;2023-02-04T04:40:21;1034.80;;;10.26;89.77
64230;BME280;50547;49.498;0.092;2023-02-04T04:43:00;1034.80;;;10.25;89.70
64230;BME280;50547;49.498;0.092;2023-02-04T04:45:29;1034.80;;;10.31;89.42
64230;BME280;50547;49.498;0.092;2023-02-04T04:47:55;1034.86;;;10.31;89.35
64230;BME280;50547;49.498;0.092;2023-02-04T04:50:24;1034.88;;;10.46;88.82
64230;BME280;50547;49.498;0.092;2023-02-04T04:52:51;1034.94;;;10.39;88.98
64230;BME280;50547;49.498;0.092;2023-02-04T04:55:25;1034.94;;;10.36;89.12
64230;BME280;50547;49.498;0.092;2023-02-04T04:57:51;1034.94;;;10.37;88.88
64230;BME280;50547;49.498;0.092;2023-02-04T05:00:21;1034.92;;;10.38;88.89
64230;BME280;50547;49.498;0.092;2023-02-04T05:02:47;1035.00;;;10.29;89.04
64230;BME280;50547;49.498;0.092;2023-02-04T05:05:16;1035.09;;;10.36;88.59
64230;BME280;50547;49.498;0.092;2023-02-04T05:07:45;1035.00;;;10.33;88.81
64230;BME280;50547;49.498;0.092;2023-02-04T05:10:15;1035.01;;;10.32;88.85
64230;BME280;50547;49.498;0.092;2023-02-04T05:12:42;1035.03;;;10.33;88.62
64230;BME280;50547;49.498;0.092;2023-02-04T05:15:11;1035.03;;;10.26;88.76
64230;BME280;50547;49.498;0.092;2023-02-04T05:17:40;1035.00;;;10.26;88.85
64230;BME280;50547;49.498;0.092;2023-02-04T05:20:10;1035.01;;;10.32;88.56
64230;BME280;50547;49.498;0.092;2023-02-04T05:22:39;1035.07;;;10.41;88.13
64230;BME280;50547;49.498;0.092;2023-02-04T05:25:08;1035.05;;;10.35;88.25
64230;BME280;50547;49.498;0.092;2023-02-04T05:27:35;1035.09;;;10.38;88.43
64230;BME280;50547;49.498;0.092;2023-02-04T05:30:04;1035.05;;;10.32;88.56
64230;BME280;50547;49.498;0.092;2023-02-04T05:32:34;1035.09;;;10.24;88.94
64230;BME280;50547;49.498;0.092;2023-02-04T05:35:04;1035.05;;;10.24;88.95
64230;BME280;50547;49.498;0.092;2023-02-04T05:37:33;1035.11;;;10.21;88.97
64230;BME280;50547;49.498;0.092;2023-02-04T05:40:02;1035.11;;;10.24;89.02
64230;BME280;50547;49.498;0.092;2023-02-04T05:42:32;1035.07;;;10.20;89.03
64230;BME280;50547;49.498;0.092;2023-02-04T05:45:01;1035.09;;;10.28;88.67
64230;BME280;50547;49.498;0.092;2023-02-04T05:47:37;1035.05;;;10.28;88.65
64230;BME280;50547;49.498;0.092;2023-02-04T05:50:07;1035.07;;;10.28;88.78
64230;BME280;50547;49.498;0.092;2023-02-04T05:52:36;1035.09;;;10.25;88.74
64230;BME280;50547;49.498;0.092;2023-02-04T05:55:06;1035.11;;;10.22;88.93
64230;BME280;50547;49.498;0.092;2023-02-04T05:57:36;1035.11;;;10.25;88.64
64230;BME280;50547;49.498;0.092;2023-02-04T06:00:06;1035.11;;;10.27;88.57
64230;BME280;50547;49.498;0.092;2023-02-04T06:02:36;1035.11;;;10.29;88.46
64230;BME280;50547;49.498;0.092;2023-02-04T06:05:05;1035.19;;;10.27;88.32
64230;BME280;50547;49.498;0.092;2023-02-04T06:07:34;1035.19;;;10.23;88.64
64230;BME280;50547;49.498;0.092;2023-02-04T06:10:04;1035.21;;;10.32;88.12
64230;BME280;50547;49.498;0.092;2023-02-04T06:12:33;1035.19;;;10.33;88.02
64230;BME280;50547;49.498;0.092;2023-02-04T06:15:03;1035.23;;;10.30;88.03
64230;BME280;50547;49.498;0.092;2023-02-04T06:17:32;1035.21;;;10.22;88.27
64230;BME280;50547;49.498;0.092;2023-02-04T06:20:01;1035.21;;;10.26;88.07
64230;BME280;50547;49.498;0.092;2023-02-04T06:22:30;1035.23;;;10.17;87.81
64230;BME280;50547;49.498;0.092;2023-02-04T06:24:59;1035.23;;;10.13;87.84
64230;BME280;50547;49.498;0.092;2023-02-04T06:27:28;1035.23;;;10.26;87.12
64230;BME280;50547;49.498;0.092;2023-02-04T06:29:57;1035.27;;;10.27;86.97
64230;BME280;50547;49.498;0.092;2023-02-04T06:32:26;1035.23;;;10.39;86.54
64230;BME280;50547;49.498;0.092;2023-02-04T06:34:55;1035.27;;;10.43;86.22
64230;BME280;50547;49.498;0.092;2023-02-04T06:37:24;1035.35;;;10.47;86.05
64230;BME280;50547;49.498;0.092;2023-02-04T06:39:53;1035.35;;;10.50;85.88
64230;BME280;50547;49.498;0.092;2023-02-04T06:42:23;1035.37;;;10.45;85.73
64230;BME280;50547;49.498;0.092;2023-02-04T06:44:51;1035.39;;;10.49;85.50
64230;BME280;50547;49.498;0.092;2023-02-04T06:47:20;1035.37;;;10.33;86.14
64230;BME280;50547;49.498;0.092;2023-02-04T06:49:49;1035.39;;;10.32;86.26
64230;BME280;50547;49.498;0.092;2023-02-04T06:52:18;1035.43;;;10.22;86.34
64230;BME280;50547;49.498;0.092;2023-02-04T06:54:48;1035.43;;;10.23;86.49
64230;BME280;50547;49.498;0.092;2023-02-04T06:57:17;1035.46;;;10.28;86.12
64230;BME280;50547;49.498;0.092;2023-02-04T06:59:46;1035.46;;;10.25;85.92
64230;BME280;50547;49.498;0.092;2023-02-04T07:02:15;1035.50;;;10.22;86.14
64230;BME280;50547;49.498;0.092;2023-02-04T07:04:46;1035.48;;;10.30;85.67
64230;BME280;50547;49.498;0.092;2023-02-04T07:07:15;1035.50;;;10.40;85.46
64230;BME280;50547;49.498;0.092;2023-02-04T07:09:44;1035.48;;;10.37;85.48
64230;BME280;50547;49.498;0.092;2023-02-04T07:12:13;1035.54;;;10.46;85.17
64230;BME280;50547;49.498;0.092;2023-02-04T07:14:47;1035.56;;;10.38;85.39
64230;BME280;50547;49.498;0.092;2023-02-04T07:17:13;1035.56;;;10.37;85.70
64230;BME280;50547;49.498;0.092;2023-02-04T07:19:42;1035.58;;;10.38;85.65
64230;BME280;50547;49.498;0.092;2023-02-04T07:22:11;1035.60;;;10.40;85.65
64230;BME280;50547;49.498;0.092;2023-02-04T07:24:41;1035.62;;;10.42;85.55
64230;BME280;50547;49.498;0.092;2023-02-04T07:27:09;1035.62;;;10.34;85.86
64230;BME280;50547;49.498;0.092;2023-02-04T07:29:39;1035.64;;;10.25;86.33
64230;BME280;50547;49.498;0.092;2023-02-04T07:32:05;1035.66;;;10.30;86.15
64230;BME280;50547;49.498;0.092;2023-02-04T07:34:36;1035.72;;;10.27;86.09
64230;BME280;50547;49.498;0.092;2023-02-04T07:37:04;1035.70;;;10.23;86.49
64230;BME280;50547;49.498;0.092;2023-02-04T07:39:33;1035.66;;;10.34;86.05
64230;BME280;50547;49.498;0.092;2023-02-04T07:42:02;1035.68;;;10.28;86.18
64230;BME280;50547;49.498;0.092;2023-02-04T07:44:31;1035.70;;;10.23;86.53
64230;BME280;50547;49.498;0.092;2023-02-04T07:47:00;1035.70;;;10.28;86.30
64230;BME280;50547;49.498;0.092;2023-02-04T07:49:30;1035.70;;;10.30;86.23
64230;BME280;50547;49.498;0.092;2023-02-04T07:51:58;1035.70;;;10.47;85.65
64230;BME280;50547;49.498;0.092;2023-02-04T07:54:28;1035.70;;;10.42;85.87
64230;BME280;50547;49.498;0.092;2023-02-04T07:56:57;1035.70;;;10.54;85.47
64230;BME280;50547;49.498;0.092;2023-02-04T07:59:26;1035.78;;;10.59;85.21
64230;BME280;50547;49.498;0.092;2023-02-04T08:01:55;1035.80;;;10.45;85.92
64230;BME280;50547;49.498;0.092;2023-02-04T08:04:24;1035.82;;;10.45;86.22
64230;BME280;50547;49.498;0.092;2023-02-04T08:06:53;1035.78;;;10.50;86.06
64230;BME280;50547;49.498;0.092;2023-02-04T08:09:22;1035.78;;;10.44;86.31
64230;BME280;50547;49.498;0.092;2023-02-04T08:11:51;1035.82;;;10.38;86.38
64230;BME280;50547;49.498;0.092;2023-02-04T08:14:20;1035.78;;;10.37;86.49
64230;BME280;50547;49.498;0.092;2023-02-04T08:16:54;1035.86;;;10.36;86.18
64230;BME280;50547;49.498;0.092;2023-02-04T08:19:23;1035.82;;;10.22;86.52
64230;BME280;50547;49.498;0.092;2023-02-04T08:21:52;1035.88;;;10.25;86.17
64230;BME280;50547;49.498;0.092;2023-02-04T08:24:21;1035.91;;;10.13;86.31
64230;BME280;50547;49.498;0.092;2023-02-04T08:26:50;1035.88;;;10.18;86.00
64230;BME280;50547;49.498;0.092;2023-02-04T08:29:19;1035.91;;;10.30;85.32
64230;BME280;50547;49.498;0.092;2023-02-04T08:31:48;1035.95;;;10.41;84.95
64230;BME280;50547;49.498;0.092;2023-02-04T08:34:17;1035.95;;;10.45;84.66
64230;BME280;50547;49.498;0.092;2023-02-04T08:36:46;1035.95;;;10.27;85.32
64230;BME280;50547;49.498;0.092;2023-02-04T08:39:15;1036.03;;;10.35;85.12
64230;BME280;50547;49.498;0.092;2023-02-04T08:41:44;1036.03;;;10.31;84.91
64230;BME280;50547;49.498;0.092;2023-02-04T08:44:14;1036.03;;;10.46;84.18
64230;BME280;50547;49.498;0.092;2023-02-04T08:46:43;1036.09;;;10.46;84.26
64230;BME280;50547;49.498;0.092;2023-02-04T08:49:12;1036.09;;;10.45;84.42
64230;BME280;50547;49.498;0.092;2023-02-04T08:51:41;1036.07;;;10.45;84.21
64230;BME280;50547;49.498;0.092;2023-02-04T08:54:10;1036.05;;;10.47;84.01
64230;BME280;50547;49.498;0.092;2023-02-04T08:56:39;1036.03;;;10.39;84.32
64230;BME280;50547;49.498;0.092;2023-02-04T08:59:08;1036.05;;;10.48;84.09
64230;BME280;50547;49.498;0.092;2023-02-04T09:01:37;1036.07;;;10.54;83.64
64230;BME280;50547;49.498;0.092;2023-02-04T09:04:06;1036.11;;;10.52;83.94
64230;BME280;50547;49.498;0.092;2023-02-04T09:06:35;1036.11;;;10.59;83.69
64230;BME280;50547;49.498;0.092;2023-02-04T09:09:05;1036.17;;;10.69;83.49
64230;BME280;50547;49.498;0.092;2023-02-04T09:11:34;1036.21;;;10.70;83.66
64230;BME280;50547;49.498;0.092;2023-02-04T09:14:03;1036.27;;;10.64;83.87
64230;BME280;50547;49.498;0.092;2023-02-04T09:16:33;1036.38;;;10.64;83.95
64230;BME280;50547;49.498;0.092;2023-02-04T09:19:02;1036.40;;;10.63;83.61
64230;BME280;50547;49.498;0.092;2023-02-04T09:21:31;1036.38;;;10.43;83.39
64230;BME280;50547;49.498;0.092;2023-02-04T09:24:00;1036.44;;;10.47;83.01
64230;BME280;50547;49.498;0.092;2023-02-04T09:26:30;1036.47;;;10.69;82.30
64230;BME280;50547;49.498;0.092;2023-02-04T09:28:58;1036.45;;;10.68;81.93
64230;BME280;50547;49.498;0.092;2023-02-04T09:31:27;1036.45;;;10.53;82.65
64230;BME280;50547;49.498;0.092;2023-02-04T09:33:56;1036.45;;;10.62;82.07
64230;BME280;50547;49.498;0.092;2023-02-04T09:36:25;1036.47;;;10.71;81.88
64230;BME280;50547;49.498;0.092;2023-02-04T09:38:55;1036.44;;;10.79;81.68
64230;BME280;50547;49.498;0.092;2023-02-04T09:41:24;1036.45;;;10.75;81.35
64230;BME280;50547;49.498;0.092;2023-02-04T09:43:53;1036.45;;;10.80;81.06
64230;BME280;50547;49.498;0.092;2023-02-04T09:46:23;1036.51;;;10.83;80.60
64230;BME280;50547;49.498;0.092;2023-02-04T09:48:53;1036.53;;;10.77;80.32
64230;BME280;50547;49.498;0.092;2023-02-04T09:51:24;1036.57;;;10.84;80.46
64230;BME280;50547;49.498;0.092;2023-02-04T09:54:08;1036.59;;;11.14;79.30
64230;BME280;50547;49.498;0.092;2023-02-04T09:56:40;1036.61;;;10.99;79.18
64230;BME280;50547;49.498;0.092;2023-02-04T09:59:11;1036.61;;;10.96;79.41
64230;BME280;50547;49.498;0.092;2023-02-04T10:01:41;1036.61;;;11.02;78.95
64230;BME280;50547;49.498;0.092;2023-02-04T10:04:12;1036.59;;;10.98;77.93
64230;BME280;50547;49.498;0.092;2023-02-04T10:06:45;1036.67;;;11.04;77.44
64230;BME280;50547;49.498;0.092;2023-02-04T10:09:14;1036.71;;;10.91;78.37
64230;BME280;50547;49.498;0.092;2023-02-04T10:11:46;1036.73;;;10.89;78.64
64230;BME280;50547;49.498;0.092;2023-02-04T10:14:19;1036.75;;;11.09;78.33
64230;BME280;50547;49.498;0.092;2023-02-04T10:16:52;1036.77;;;11.04;77.81
64230;BME280;50547;49.498;0.092;2023-02-04T10:19:22;1036.75;;;11.18;76.98
64230;BME280;50547;49.498;0.092;2023-02-04T10:21:51;1036.77;;;11.31;76.86
64230;BME280;50547;49.498;0.092;2023-02-04T10:24:23;1036.79;;;11.55;75.94
64230;BME280;50547;49.498;0.092;2023-02-04T10:26:53;1036.77;;;11.40;75.99
64230;BME280;50547;49.498;0.092;2023-02-04T10:29:23;1036.81;;;11.36;76.76
64230;BME280;50547;49.498;0.092;2023-02-04T10:31:52;1036.85;;;11.25;77.16
64230;BME280;50547;49.498;0.092;2023-02-04T10:34:22;1036.85;;;11.31;76.01
64230;BME280;50547;49.498;0.092;2023-02-04T10:36:54;1036.83;;;11.06;77.20
64230;BME280;50547;49.498;0.092;2023-02-04T10:39:25;1036.83;;;11.22;76.28
64230;BME280;50547;49.498;0.092;2023-02-04T10:41:56;1036.87;;;11.15;76.50
64230;BME280;50547;49.498;0.092;2023-02-04T10:44:28;1036.87;;;11.15;76.45
64230;BME280;50547;49.498;0.092;2023-02-04T10:46:58;1036.89;;;11.11;75.92
64230;BME280;50547;49.498;0.092;2023-02-04T10:49:29;1036.87;;;11.09;76.04
64230;BME280;50547;49.498;0.092;2023-02-04T10:51:59;1036.87;;;11.15;75.63
64230;BME280;50547;49.498;0.092;2023-02-04T10:54:35;1036.92;;;10.94;76.19
64230;BME280;50547;49.498;0.092;2023-02-04T10:57:22;1036.89;;;11.01;76.09
64230;BME280;50547;49.498;0.092;2023-02-04T10:59:52;1036.92;;;11.03;75.35
64230;BME280;50547;49.498;0.092;2023-02-04T11:02:35;1036.87;;;11.04;75.22
64230;BME280;50547;49.498;0.092;2023-02-04T11:05:10;1036.89;;;11.11;75.27
64230;BME280;50547;49.498;0.092;2023-02-04T11:07:40;1036.92;;;11.15;75.12
64230;BME280;50547;49.498;0.092;2023-02-04T11:10:14;1036.92;;;10.97;75.26
64230;BME280;50547;49.498;0.092;2023-02-04T11:12:45;1036.94;;;10.99;75.14
64230;BME280;50547;49.498;0.092;2023-02-04T11:15:48;1036.91;;;10.94;75.33
64230;BME280;50547;49.498;0.092;2023-02-04T11:18:28;1036.89;;;11.03;75.42
64230;BME280;50547;49.498;0.092;2023-02-04T11:20:58;1036.91;;;11.05;75.44
64230;BME280;50547;49.498;0.092;2023-02-04T11:23:31;1036.92;;;11.27;74.61
64230;BME280;50547;49.498;0.092;2023-02-04T11:26:04;1036.92;;;11.40;73.90
64230;BME280;50547;49.498;0.092;2023-02-04T11:29:05;1036.92;;;11.24;74.84
64230;BME280;50547;49.498;0.092;2023-02-04T11:31:42;1036.89;;;11.05;74.22
64230;BME280;50547;49.498;0.092;2023-02-04T11:34:26;1036.83;;;11.11;73.28
64230;BME280;50547;49.498;0.092;2023-02-04T11:37:05;1036.87;;;11.14;72.12
64230;BME280;50547;49.498;0.092;2023-02-04T11:39:36;1036.81;;;11.02;72.00
64230;BME280;50547;49.498;0.092;2023-02-04T11:42:16;1036.79;;;11.02;71.99
64230;BME280;50547;49.498;0.092;2023-02-04T11:44:48;1036.83;;;11.11;72.41
64230;BME280;50547;49.498;0.092;2023-02-04T11:47:18;1036.91;;;11.24;71.65
64230;BME280;50547;49.498;0.092;2023-02-04T11:50:01;1036.89;;;11.06;72.57
64230;BME280;50547;49.498;0.092;2023-02-04T11:52:27;1036.92;;;11.00;72.46
64230;BME280;50547;49.498;0.092;2023-02-04T11:54:58;1036.96;;;10.94;72.47
64230;BME280;50547;49.498;0.092;2023-02-04T11:57:27;1036.94;;;10.89;73.27
64230;BME280;50547;49.498;0.092;2023-02-04T11:59:55;1036.91;;;10.98;72.70
64230;BME280;50547;49.498;0.092;2023-02-04T12:02:24;1036.91;;;11.12;72.35
64230;BME280;50547;49.498;0.092;2023-02-04T12:04:55;1036.96;;;11.13;71.87
64230;BME280;50547;49.498;0.092;2023-02-04T12:07:26;1036.94;;;10.99;73.08
64230;BME280;50547;49.498;0.092;2023-02-04T12:09:57;1036.94;;;10.94;74.08
64230;BME280;50547;49.498;0.092;2023-02-04T12:12:28;1036.96;;;10.86;74.71
64230;BME280;50547;49.498;0.092;2023-02-04T12:15:02;1037.04;;;10.89;75.13
64230;BME280;50547;49.498;0.092;2023-02-04T12:17:31;1037.04;;;10.69;75.95
64230;BME280;50547;49.498;0.092;2023-02-04T12:20:00;1037.04;;;10.79;75.63
64230;BME280;50547;49.498;0.092;2023-02-04T12:22:29;1037.02;;;10.91;74.64
64230;BME280;50547;49.498;0.092;2023-02-04T12:24:58;1036.98;;;11.12;74.22
64230;BME280;50547;49.498;0.092;2023-02-04T12:27:27;1036.89;;;11.23;74.19
64230;BME280;50547;49.498;0.092;2023-02-04T12:29:56;1036.92;;;10.77;75.87
64230;BME280;50547;49.498;0.092;2023-02-04T12:32:25;1036.94;;;10.65;76.17
64230;BME280;50547;49.498;0.092;2023-02-04T12:34:54;1036.92;;;10.79;76.40
64230;BME280;50547;49.498;0.092;2023-02-04T12:37:23;1036.96;;;10.82;76.43
64230;BME280;50547;49.498;0.092;2023-02-04T12:39:52;1036.87;;;11.08;74.82
64230;BME280;50547;49.498;0.092;2023-02-04T12:42:21;1036.85;;;11.13;74.31
64230;BME280;50547;49.498;0.092;2023-02-04T12:44:50;1036.91;;;10.91;75.66
64230;BME280;50547;49.498;0.092;2023-02-04T12:47:16;1036.79;;;10.85;76.03
64230;BME280;50547;49.498;0.092;2023-02-04T12:49:45;1036.83;;;10.79;75.46
64230;BME280;50547;49.498;0.092;2023-02-04T12:52:14;1036.85;;;10.84;75.20
64230;BME280;50547;49.498;0.092;2023-02-04T12:54:43;1036.77;;;11.08;74.21
64230;BME280;50547;49.498;0.092;2023-02-04T12:57:12;1036.73;;;11.15;73.89
64230;BME280;50547;49.498;0.092;2023-02-04T12:59:41;1036.73;;;11.21;73.93
64230;BME280;50547;49.498;0.092;2023-02-04T13:02:10;1036.73;;;11.18;74.44
64230;BME280;50547;49.498;0.092;2023-02-04T13:04:36;1036.75;;;10.94;75.14
64230;BME280;50547;49.498;0.092;2023-02-04T13:07:06;1036.79;;;10.85;75.78
64230;BME280;50547;49.498;0.092;2023-02-04T13:09:36;1036.71;;;10.98;74.63
64230;BME280;50547;49.498;0.092;2023-02-04T13:12:05;1036.67;;;10.96;73.78
64230;BME280;50547;49.498;0.092;2023-02-04T13:14:34;1036.63;;;11.06;73.48
64230;BME280;50547;49.498;0.092;2023-02-04T13:17:03;1036.65;;;10.98;73.96
64230;BME280;50547;49.498;0.092;2023-02-04T13:19:32;1036.71;;;10.97;74.31
64230;BME280;50547;49.498;0.092;2023-02-04T13:22:02;1036.71;;;11.01;74.40
64230;BME280;50547;49.498;0.092;2023-02-04T13:24:31;1036.73;;;11.00;73.94
64230;BME280;50547;49.498;0.092;2023-02-04T13:27:00;1036.73;;;11.15;73.59